sensor_id;sensor_type;location;lat;lon;timestamp;temperature;humidity
23827;DHT22;12094;50.822;4.376;2023-02-15T00:00:12;8.00;99.90
23827;DHT22;12094;50.822;4.376;2023-02-15T00:02:41;8.00;99.90
23827;DHT22;12094;50.822;4.376;2023-02-15T00:05:08;8.00;99.90
23827;DHT22;12094;50.822;4.376;2023-02-15T00:07:35;8.00;99.90
23827;DHT22;12094;50.822;4.376;2023-02-15T00:10:03;7.90;99.90
23827;DHT22;12094;50.822;4.376;2023-02-15T00:12:30;7.90;99.90
23827;DHT22;12094;50.822;4.376;2023-02-15T00:15:00;8.00;99.90
23827;DHT22;12094;50.822;4.376;2023-02-15T00:17:29;7.90;99.90
23827;DHT22;12094;50.822;4.376;2023-02-15T00:19:56;7.90;99.90
23827;DHT22;12094;50.822;4.376;2023-02-15T00:22:25;7.90;99.90
23827;DHT22;12094;50.822;4.376;2023-02-15T00:24:55;7.90;99.90
23827;DHT22;12094;50.822;4.376;2023-02-15T00:27:22;7.90;99.90
23827;DHT22;12094;50.822;4.376;2023-02-15T00:29:49;7.90;99.90
23827;DHT22;12094;50.822;4.376;2023-02-15T00:32:16;7.90;99.90
23827;DHT22;12094;50.822;4.376;2023-02-15T00:34:43;7.80;99.90
23827;DHT22;12094;50.822;4.376;2023-02-15T00:37:10;7.80;99.90
23827;DHT22;12094;50.822;4.376;2023-02-15T00:39:37;7.90;99.90
23827;DHT22;12094;50.822;4.376;2023-02-15T00:42:05;7.80;99.90
23827;DHT22;12094;50.822;4.376;2023-02-15T00:44:32;7.80;99.90
23827;DHT22;12094;50.822;4.376;2023-02-15T00:46:58;7.90;99.90
23827;DHT22;12094;50.822;4.376;2023-02-15T00:49:26;7.80;99.90
23827;DHT22;12094;50.822;4.376;2023-02-15T00:51:53;7.80;99.90
23827;DHT22;12094;50.822;4.376;2023-02-15T00:54:20;7.80;99.90
23827;DHT22;12094;50.822;4.376;2023-02-15T00:56:48;7.90;99.90
23827;DHT22;12094;50.822;4.376;2023-02-15T00:59:15;7.80;99.90
23827;DHT22;12094;50.822;4.376;2023-02-15T01:01:42;7.80;99.90
23827;DHT22;12094;50.822;4.376;2023-02-15T01:04:10;7.80;99.90
23827;DHT22;12094;50.822;4.376;2023-02-15T01:06:41;7.80;99.90
23827;DHT22;12094;50.822;4.376;2023-02-15T01:09:11;7.80;99.90
23827;DHT22;12094;50.822;4.376;2023-02-15T01:11:39;7.70;99.90
23827;DHT22;12094;50.822;4.376;2023-02-15T01:14:06;7.60;99.90
23827;DHT22;12094;50.822;4.376;2023-02-15T01:16:38;7.60;99.90
23827;DHT22;12094;50.822;4.376;2023-02-15T01:19:05;7.60;99.90
23827;DHT22;12094;50.822;4.376;2023-02-15T01:21:32;7.60;99.90
23827;DHT22;12094;50.822;4.376;2023-02-15T01:24:02;7.60;99.90
23827;DHT22;12094;50.822;4.376;2023-02-15T01:26:30;7.50;99.90
23827;DHT22;12094;50.822;4.376;2023-02-15T01:28:58;7.50;99.90
23827;DHT22;12094;50.822;4.376;2023-02-15T01:31:26;7.50;99.90
23827;DHT22;12094;50.822;4.376;2023-02-15T01:33:53;7.50;99.90
23827;DHT22;12094;50.822;4.376;2023-02-15T01:36:21;7.50;99.90
23827;DHT22;12094;50.822;4.376;2023-02-15T01:38:48;7.40;99.90
23827;DHT22;12094;50.822;4.376;2023-02-15T01:41:15;7.20;99.90
23827;DHT22;12094;50.822;4.376;2023-02-15T01:44:01;7.20;99.90
23827;DHT22;12094;50.822;4.376;2023-02-15T01:46:38;7.20;99.90
23827;DHT22;12094;50.822;4.376;2023-02-15T01:49:16;7.20;99.90
23827;DHT22;12094;50.822;4.376;2023-02-15T01:51:46;7.30;99.90
23827;DHT22;12094;50.822;4.376;2023-02-15T01:54:25;7.30;99.90
23827;DHT22;12094;50.822;4.376;2023-02-15T01:57:00;7.30;99.90
23827;DHT22;12094;50.822;4.376;2023-02-15T01:59:32;7.20;99.90
23827;DHT22;12094;50.822;4.376;2023-02-15T02:02:03;7.20;99.90
23827;DHT22;12094;50.822;4.376;2023-02-15T02:04:38;7.20;99.90
23827;DHT22;12094;50.822;4.376;2023-02-15T02:07:07;7.10;99.90
23827;DHT22;12094;50.822;4.376;2023-02-15T02:09:37;7.10;99.90
23827;DHT22;12094;50.822;4.376;2023-02-15T02:12:04;7.10;99.90
23827;DHT22;12094;50.822;4.376;2023-02-15T02:14:32;7.20;99.90
23827;DHT22;12094;50.822;4.376;2023-02-15T02:20:30;7.20;99.90
23827;DHT22;12094;50.822;4.376;2023-02-15T02:23:39;7.10;99.90
23827;DHT22;12094;50.822;4.376;2023-02-15T02:32:48;7.10;99.90
23827;DHT22;12094;50.822;4.376;2023-02-15T02:34:45;7.00;99.90
23827;DHT22;12094;50.822;4.376;2023-02-15T02:37:28;7.00;99.90
23827;DHT22;12094;50.822;4.376;2023-02-15T02:43:09;7.00;99.90
23827;DHT22;12094;50.822;4.376;2023-02-15T02:45:44;6.90;99.90
23827;DHT22;12094;50.822;4.376;2023-02-15T02:48:18;6.90;99.90
23827;DHT22;12094;50.822;4.376;2023-02-15T02:50:48;6.80;99.90
23827;DHT22;12094;50.822;4.376;2023-02-15T02:53:15;6.80;99.90
23827;DHT22;12094;50.822;4.376;2023-02-15T02:56:09;6.80;99.90
23827;DHT22;12094;50.822;4.376;2023-02-15T03:01:35;6.80;99.90
23827;DHT22;12094;50.822;4.376;2023-02-15T03:04:11;6.80;99.90
23827;DHT22;12094;50.822;4.376;2023-02-15T03:06:55;6.80;99.90
23827;DHT22;12094;50.822;4.376;2023-02-15T03:09:37;6.80;99.90
23827;DHT22;12094;50.822;4.376;2023-02-15T03:12:23;6.80;99.90
23827;DHT22;12094;50.822;4.376;2023-02-15T03:15:07;6.80;99.90
23827;DHT22;12094;50.822;4.376;2023-02-15T03:17:41;6.70;99.90
23827;DHT22;12094;50.822;4.376;2023-02-15T03:20:30;6.40;99.90
23827;DHT22;12094;50.822;4.376;2023-02-15T03:23:07;6.40;99.90
23827;DHT22;12094;50.822;4.376;2023-02-15T03:25:41;6.40;99.90
23827;DHT22;12094;50.822;4.376;2023-02-15T03:28:13;6.50;99.90
23827;DHT22;12094;50.822;4.376;2023-02-15T03:30:45;6.50;99.90
23827;DHT22;12094;50.822;4.376;2023-02-15T03:33:17;6.50;99.90
23827;DHT22;12094;50.822;4.376;2023-02-15T03:35:49;6.50;99.90
23827;DHT22;12094;50.822;4.376;2023-02-15T03:38:21;6.50;99.90
23827;DHT22;12094;50.822;4.376;2023-02-15T03:40:53;6.50;99.90
23827;DHT22;12094;50.822;4.376;2023-02-15T03:48:53;6.50;99.90
23827;DHT22;12094;50.822;4.376;2023-02-15T03:51:23;6.50;99.90
23827;DHT22;12094;50.822;4.376;2023-02-15T03:54:11;6.30;99.90
23827;DHT22;12094;50.822;4.376;2023-02-15T03:56:42;6.20;99.90
23827;DHT22;12094;50.822;4.376;2023-02-15T03:59:29;6.20;99.90
23827;DHT22;12094;50.822;4.376;2023-02-15T04:02:24;6.20;99.90
23827;DHT22;12094;50.822;4.376;2023-02-15T04:04:55;6.10;99.90
23827;DHT22;12094;50.822;4.376;2023-02-15T04:07:22;6.00;99.90
23827;DHT22;12094;50.822;4.376;2023-02-15T04:09:49;6.00;99.90
23827;DHT22;12094;50.822;4.376;2023-02-15T04:12:38;6.00;99.90
23827;DHT22;12094;50.822;4.376;2023-02-15T04:15:11;5.90;99.90
23827;DHT22;12094;50.822;4.376;2023-02-15T04:17:57;6.10;99.90
23827;DHT22;12094;50.822;4.376;2023-02-15T04:20:25;6.10;99.90
23827;DHT22;12094;50.822;4.376;2023-02-15T04:23:15;6.20;99.90
23827;DHT22;12094;50.822;4.376;2023-02-15T04:26:04;6.20;99.90
23827;DHT22;12094;50.822;4.376;2023-02-15T04:28:33;6.20;99.90
23827;DHT22;12094;50.822;4.376;2023-02-15T04:31:25;6.20;99.90
23827;DHT22;12094;50.822;4.376;2023-02-15T04:33:52;6.20;99.90
23827;DHT22;12094;50.822;4.376;2023-02-15T04:36:20;6.10;99.90
23827;DHT22;12094;50.822;4.376;2023-02-15T04:38:47;6.10;99.90
23827;DHT22;12094;50.822;4.376;2023-02-15T04:41:15;6.10;99.90
23827;DHT22;12094;50.822;4.376;2023-02-15T04:43:42;6.10;99.90
23827;DHT22;12094;50.822;4.376;2023-02-15T04:46:09;6.20;99.90
23827;DHT22;12094;50.822;4.376;2023-02-15T04:48:37;6.20;99.90
23827;DHT22;12094;50.822;4.376;2023-02-15T04:51:08;6.10;99.90
23827;DHT22;12094;50.822;4.376;2023-02-15T04:53:37;6.00;99.90
23827;DHT22;12094;50.822;4.376;2023-02-15T04:56:04;6.00;99.90
23827;DHT22;12094;50.822;4.376;2023-02-15T04:58:31;6.00;99.90
23827;DHT22;12094;50.822;4.376;2023-02-15T05:00:59;6.00;99.90
23827;DHT22;12094;50.822;4.376;2023-02-15T05:03:26;5.90;99.90
23827;DHT22;12094;50.822;4.376;2023-02-15T05:05:57;5.90;99.90
23827;DHT22;12094;50.822;4.376;2023-02-15T05:08:27;5.80;99.90
23827;DHT22;12094;50.822;4.376;2023-02-15T05:10:55;5.80;99.90
23827;DHT22;12094;50.822;4.376;2023-02-15T05:13:22;5.80;99.90
23827;DHT22;12094;50.822;4.376;2023-02-15T05:15:52;5.80;99.90
23827;DHT22;12094;50.822;4.376;2023-02-15T05:18:20;5.80;99.90
23827;DHT22;12094;50.822;4.376;2023-02-15T05:20:49;5.90;99.90
23827;DHT22;12094;50.822;4.376;2023-02-15T05:23:17;5.80;99.90
23827;DHT22;12094;50.822;4.376;2023-02-15T05:25:51;5.90;99.90
23827;DHT22;12094;50.822;4.376;2023-02-15T05:28:37;6.00;99.90
23827;DHT22;12094;50.822;4.376;2023-02-15T05:33:33;6.00;99.90
23827;DHT22;12094;50.822;4.376;2023-02-15T05:36:01;6.00;99.90
23827;DHT22;12094;50.822;4.376;2023-02-15T05:38:29;6.00;99.90
23827;DHT22;12094;50.822;4.376;2023-02-15T05:40:57;5.90;99.90
23827;DHT22;12094;50.822;4.376;2023-02-15T05:43:24;6.00;99.90
23827;DHT22;12094;50.822;4.376;2023-02-15T05:45:53;6.00;99.90
23827;DHT22;12094;50.822;4.376;2023-02-15T05:48:25;6.00;99.90
23827;DHT22;12094;50.822;4.376;2023-02-15T05:51:11;6.00;99.90
23827;DHT22;12094;50.822;4.376;2023-02-15T05:53:43;6.00;99.90
23827;DHT22;12094;50.822;4.376;2023-02-15T05:56:12;6.00;99.90
23827;DHT22;12094;50.822;4.376;2023-02-15T05:58:40;6.10;99.90
23827;DHT22;12094;50.822;4.376;2023-02-15T06:01:18;6.00;99.90
23827;DHT22;12094;50.822;4.376;2023-02-15T06:03:45;6.10;99.90
23827;DHT22;12094;50.822;4.376;2023-02-15T06:06:15;6.10;99.90
23827;DHT22;12094;50.822;4.376;2023-02-15T06:08:44;6.10;99.90
23827;DHT22;12094;50.822;4.376;2023-02-15T06:11:11;6.10;99.90
23827;DHT22;12094;50.822;4.376;2023-02-15T06:13:40;6.10;99.90
23827;DHT22;12094;50.822;4.376;2023-02-15T06:16:08;6.10;99.90
23827;DHT22;12094;50.822;4.376;2023-02-15T06:18:35;6.20;99.90
23827;DHT22;12094;50.822;4.376;2023-02-15T06:21:03;6.20;99.90
23827;DHT22;12094;50.822;4.376;2023-02-15T06:23:30;6.20;99.90
23827;DHT22;12094;50.822;4.376;2023-02-15T06:25:57;6.20;99.90
23827;DHT22;12094;50.822;4.376;2023-02-15T06:28:24;6.20;99.90
23827;DHT22;12094;50.822;4.376;2023-02-15T06:30:54;6.30;99.90
23827;DHT22;12094;50.822;4.376;2023-02-15T06:33:22;6.30;99.90
23827;DHT22;12094;50.822;4.376;2023-02-15T06:35:49;6.20;99.90
23827;DHT22;12094;50.822;4.376;2023-02-15T06:38:16;6.30;99.90
23827;DHT22;12094;50.822;4.376;2023-02-15T06:40:45;6.30;99.90
23827;DHT22;12094;50.822;4.376;2023-02-15T06:43:12;6.40;99.90
23827;DHT22;12094;50.822;4.376;2023-02-15T06:45:41;6.40;99.90
23827;DHT22;12094;50.822;4.376;2023-02-15T06:48:08;6.40;99.90
23827;DHT22;12094;50.822;4.376;2023-02-15T06:50:38;6.40;99.90
23827;DHT22;12094;50.822;4.376;2023-02-15T06:53:13;6.50;99.90
23827;DHT22;12094;50.822;4.376;2023-02-15T06:55:42;6.50;99.90
23827;DHT22;12094;50.822;4.376;2023-02-15T06:58:09;6.50;99.90
23827;DHT22;12094;50.822;4.376;2023-02-15T07:00:36;6.40;99.90
23827;DHT22;12094;50.822;4.376;2023-02-15T07:03:08;6.50;99.90
23827;DHT22;12094;50.822;4.376;2023-02-15T07:05:36;6.40;99.90
23827;DHT22;12094;50.822;4.376;2023-02-15T07:08:19;6.40;99.90
23827;DHT22;12094;50.822;4.376;2023-02-15T07:10:52;6.50;99.90
23827;DHT22;12094;50.822;4.376;2023-02-15T07:13:20;6.50;99.90
23827;DHT22;12094;50.822;4.376;2023-02-15T07:15:49;6.40;99.90
23827;DHT22;12094;50.822;4.376;2023-02-15T07:18:15;6.50;99.90
23827;DHT22;12094;50.822;4.376;2023-02-15T07:20:42;6.50;99.90
23827;DHT22;12094;50.822;4.376;2023-02-15T07:23:10;6.50;99.90
23827;DHT22;12094;50.822;4.376;2023-02-15T07:25:37;6.60;99.90
23827;DHT22;12094;50.822;4.376;2023-02-15T07:28:05;6.60;99.90
23827;DHT22;12094;50.822;4.376;2023-02-15T07:30:33;6.60;99.90
23827;DHT22;12094;50.822;4.376;2023-02-15T07:33:04;6.60;99.90
23827;DHT22;12094;50.822;4.376;2023-02-15T07:35:54;6.60;99.90
23827;DHT22;12094;50.822;4.376;2023-02-15T07:38:31;6.70;99.90
23827;DHT22;12094;50.822;4.376;2023-02-15T07:41:00;6.70;99.90
23827;DHT22;12094;50.822;4.376;2023-02-15T07:43:28;6.70;99.90
23827;DHT22;12094;50.822;4.376;2023-02-15T07:46:04;6.70;99.90
23827;DHT22;12094;50.822;4.376;2023-02-15T07:48:33;6.70;99.90
23827;DHT22;12094;50.822;4.376;2023-02-15T07:51:07;6.80;99.90
23827;DHT22;12094;50.822;4.376;2023-02-15T07:53:42;6.90;99.90
23827;DHT22;12094;50.822;4.376;2023-02-15T07:56:13;7.00;99.90
23827;DHT22;12094;50.822;4.376;2023-02-15T07:58:43;7.10;99.90
23827;DHT22;12094;50.822;4.376;2023-02-15T08:01:26;7.10;99.90
23827;DHT22;12094;50.822;4.376;2023-02-15T08:03:59;7.10;99.90
23827;DHT22;12094;50.822;4.376;2023-02-15T08:06:33;7.20;99.90
23827;DHT22;12094;50.822;4.376;2023-02-15T08:12:42;7.30;99.90
23827;DHT22;12094;50.822;4.376;2023-02-15T08:15:13;7.40;99.90
23827;DHT22;12094;50.822;4.376;2023-02-15T08:17:42;7.50;99.90
23827;DHT22;12094;50.822;4.376;2023-02-15T08:20:15;7.60;99.90
23827;DHT22;12094;50.822;4.376;2023-02-15T08:22:43;7.80;99.90
23827;DHT22;12094;50.822;4.376;2023-02-15T08:25:13;7.90;99.90
23827;DHT22;12094;50.822;4.376;2023-02-15T08:27:40;7.90;99.90
23827;DHT22;12094;50.822;4.376;2023-02-15T08:30:11;8.00;99.90
23827;DHT22;12094;50.822;4.376;2023-02-15T08:32:46;8.00;99.90
23827;DHT22;12094;50.822;4.376;2023-02-15T08:35:31;8.10;99.90
23827;DHT22;12094;50.822;4.376;2023-02-15T08:38:14;8.20;99.90
23827;DHT22;12094;50.822;4.376;2023-02-15T08:40:42;8.30;99.90
23827;DHT22;12094;50.822;4.376;2023-02-15T08:43:11;8.40;99.90
23827;DHT22;12094;50.822;4.376;2023-02-15T08:45:39;8.40;99.90
23827;DHT22;12094;50.822;4.376;2023-02-15T08:48:12;8.40;99.90
23827;DHT22;12094;50.822;4.376;2023-02-15T08:50:41;8.40;99.90
23827;DHT22;12094;50.822;4.376;2023-02-15T08:53:10;8.40;99.90
23827;DHT22;12094;50.822;4.376;2023-02-15T08:55:39;8.40;99.90
23827;DHT22;12094;50.822;4.376;2023-02-15T08:58:07;8.50;99.90
23827;DHT22;12094;50.822;4.376;2023-02-15T09:00:34;8.50;99.90
23827;DHT22;12094;50.822;4.376;2023-02-15T09:03:11;8.50;99.90
23827;DHT22;12094;50.822;4.376;2023-02-15T09:05:42;8.60;99.90
23827;DHT22;12094;50.822;4.376;2023-02-15T09:08:11;8.60;99.90
23827;DHT22;12094;50.822;4.376;2023-02-15T09:10:38;8.60;99.90
23827;DHT22;12094;50.822;4.376;2023-02-15T09:13:29;8.70;99.90
23827;DHT22;12094;50.822;4.376;2023-02-15T09:20:07;8.60;99.90
23827;DHT22;12094;50.822;4.376;2023-02-15T09:26:17;8.80;99.90
23827;DHT22;12094;50.822;4.376;2023-02-15T09:28:47;8.90;99.90
23827;DHT22;12094;50.822;4.376;2023-02-15T09:31:23;8.90;99.90
23827;DHT22;12094;50.822;4.376;2023-02-15T09:33:54;9.00;99.90
23827;DHT22;12094;50.822;4.376;2023-02-15T09:36:31;9.10;99.90
23827;DHT22;12094;50.822;4.376;2023-02-15T09:39:15;9.20;99.90
23827;DHT22;12094;50.822;4.376;2023-02-15T09:47:46;9.50;99.90
23827;DHT22;12094;50.822;4.376;2023-02-15T09:50:23;9.50;99.90
23827;DHT22;12094;50.822;4.376;2023-02-15T09:56:14;9.70;99.90
23827;DHT22;12094;50.822;4.376;2023-02-15T10:01:43;9.90;99.90
23827;DHT22;12094;50.822;4.376;2023-02-15T10:21:38;10.50;99.90
23827;DHT22;12094;50.822;4.376;2023-02-15T10:26:48;10.40;99.90
23827;DHT22;12094;50.822;4.376;2023-02-15T10:35:03;10.70;99.90
23827;DHT22;12094;50.822;4.376;2023-02-15T10:41:15;11.00;99.90
23827;DHT22;12094;50.822;4.376;2023-02-15T10:46:40;11.50;99.90
23827;DHT22;12094;50.822;4.376;2023-02-15T10:55:34;11.80;99.90
23827;DHT22;12094;50.822;4.376;2023-02-15T11:06:59;12.60;99.90
23827;DHT22;12094;50.822;4.376;2023-02-15T11:12:44;12.60;99.90
23827;DHT22;12094;50.822;4.376;2023-02-15T11:15:34;12.90;99.90
23827;DHT22;12094;50.822;4.376;2023-02-15T11:21:22;13.90;99.90
23827;DHT22;12094;50.822;4.376;2023-02-15T11:23:53;13.80;99.90
23827;DHT22;12094;50.822;4.376;2023-02-15T11:26:33;13.60;99.90
23827;DHT22;12094;50.822;4.376;2023-02-15T11:32:01;13.00;99.90
23827;DHT22;12094;50.822;4.376;2023-02-15T11:34:38;12.80;99.90
23827;DHT22;12094;50.822;4.376;2023-02-15T11:37:12;13.20;99.90
23827;DHT22;12094;50.822;4.376;2023-02-15T11:39:42;13.90;99.90
23827;DHT22;12094;50.822;4.376;2023-02-15T11:42:21;14.90;99.90
23827;DHT22;12094;50.822;4.376;2023-02-15T11:45:28;15.30;99.90
23827;DHT22;12094;50.822;4.376;2023-02-15T11:48:00;15.20;99.90
23827;DHT22;12094;50.822;4.376;2023-02-15T11:50:31;15.20;99.90
23827;DHT22;12094;50.822;4.376;2023-02-15T11:53:02;14.70;99.90
23827;DHT22;12094;50.822;4.376;2023-02-15T11:55:31;14.60;99.90
23827;DHT22;12094;50.822;4.376;2023-02-15T11:58:23;14.70;99.90
23827;DHT22;12094;50.822;4.376;2023-02-15T12:11:52;14.10;99.90
23827;DHT22;12094;50.822;4.376;2023-02-15T12:14:20;13.90;99.90
23827;DHT22;12094;50.822;4.376;2023-02-15T12:16:54;13.80;99.90
23827;DHT22;12094;50.822;4.376;2023-02-15T12:19:47;13.50;99.90
23827;DHT22;12094;50.822;4.376;2023-02-15T12:22:51;13.30;99.90
23827;DHT22;12094;50.822;4.376;2023-02-15T12:25:53;13.00;99.90
23827;DHT22;12094;50.822;4.376;2023-02-15T12:28:38;12.80;99.90
23827;DHT22;12094;50.822;4.376;2023-02-15T12:31:38;13.00;99.90
23827;DHT22;12094;50.822;4.376;2023-02-15T12:34:37;13.30;99.90
23827;DHT22;12094;50.822;4.376;2023-02-15T12:37:17;13.50;99.90
23827;DHT22;12094;50.822;4.376;2023-02-15T12:39:54;13.70;99.90
23827;DHT22;12094;50.822;4.376;2023-02-15T12:42:21;13.80;99.90
23827;DHT22;12094;50.822;4.376;2023-02-15T12:45:01;13.90;99.90
23827;DHT22;12094;50.822;4.376;2023-02-15T12:47:33;14.00;99.90
23827;DHT22;12094;50.822;4.376;2023-02-15T12:50:11;14.20;99.90
23827;DHT22;12094;50.822;4.376;2023-02-15T12:52:49;15.00;99.90
23827;DHT22;12094;50.822;4.376;2023-02-15T12:55:25;15.90;99.90
23827;DHT22;12094;50.822;4.376;2023-02-15T12:58:27;16.70;99.90
23827;DHT22;12094;50.822;4.376;2023-02-15T13:01:31;17.40;99.90
23827;DHT22;12094;50.822;4.376;2023-02-15T13:04:03;17.30;99.90
23827;DHT22;12094;50.822;4.376;2023-02-15T13:06:35;17.30;99.90
23827;DHT22;12094;50.822;4.376;2023-02-15T13:09:35;16.50;99.90
23827;DHT22;12094;50.822;4.376;2023-02-15T13:18:45;15.80;99.90
23827;DHT22;12094;50.822;4.376;2023-02-15T13:21:21;15.80;99.90
23827;DHT22;12094;50.822;4.376;2023-02-15T13:23:59;15.50;99.90
23827;DHT22;12094;50.822;4.376;2023-02-15T13:26:31;15.70;99.90
23827;DHT22;12094;50.822;4.376;2023-02-15T13:29:06;15.30;99.90
23827;DHT22;12094;50.822;4.376;2023-02-15T13:31:35;14.90;99.90
23827;DHT22;12094;50.822;4.376;2023-02-15T13:34:24;14.70;99.90
23827;DHT22;12094;50.822;4.376;2023-02-15T13:39:42;15.00;99.90
23827;DHT22;12094;50.822;4.376;2023-02-15T13:42:38;15.10;99.90
23827;DHT22;12094;50.822;4.376;2023-02-15T13:48:30;15.00;99.90
23827;DHT22;12094;50.822;4.376;2023-02-15T13:51:22;15.00;99.90
23827;DHT22;12094;50.822;4.376;2023-02-15T13:57:00;14.40;99.90
23827;DHT22;12094;50.822;4.376;2023-02-15T14:15:18;14.50;99.90
23827;DHT22;12094;50.822;4.376;2023-02-15T14:21:03;14.40;99.90
23827;DHT22;12094;50.822;4.376;2023-02-15T14:26:33;14.30;99.90
23827;DHT22;12094;50.822;4.376;2023-02-15T14:29:35;13.90;99.90
23827;DHT22;12094;50.822;4.376;2023-02-15T14:32:37;13.70;99.90
23827;DHT22;12094;50.822;4.376;2023-02-15T14:35:14;13.80;99.90
23827;DHT22;12094;50.822;4.376;2023-02-15T14:40:54;13.80;99.90
23827;DHT22;12094;50.822;4.376;2023-02-15T14:49:04;13.20;99.90
23827;DHT22;12094;50.822;4.376;2023-02-15T14:59:54;13.40;99.90
23827;DHT22;12094;50.822;4.376;2023-02-15T15:02:47;13.30;99.90
23827;DHT22;12094;50.822;4.376;2023-02-15T15:05:35;13.20;99.90
23827;DHT22;12094;50.822;4.376;2023-02-15T15:08:33;12.90;99.90
23827;DHT22;12094;50.822;4.376;2023-02-15T15:17:08;12.80;99.90
23827;DHT22;12094;50.822;4.376;2023-02-15T15:22:29;12.80;99.90
23827;DHT22;12094;50.822;4.376;2023-02-15T15:28:08;12.80;99.90
23827;DHT22;12094;50.822;4.376;2023-02-15T15:36:27;12.70;99.90
23827;DHT22;12094;50.822;4.376;2023-02-15T15:42:26;12.80;99.90
23827;DHT22;12094;50.822;4.376;2023-02-15T15:51:21;12.50;99.90
23827;DHT22;12094;50.822;4.376;2023-02-15T15:53:55;12.40;99.90
23827;DHT22;12094;50.822;4.376;2023-02-15T15:56:32;12.30;99.90
23827;DHT22;12094;50.822;4.376;2023-02-15T15:59:07;12.30;99.90
23827;DHT22;12094;50.822;4.376;2023-02-15T16:01:48;12.30;99.90
23827;DHT22;12094;50.822;4.376;2023-02-15T16:04:27;12.30;99.90
23827;DHT22;12094;50.822;4.376;2023-02-15T16:06:57;12.40;99.90
23827;DHT22;12094;50.822;4.376;2023-02-15T16:09:28;12.30;99.90
23827;DHT22;12094;50.822;4.376;2023-02-15T16:11:58;12.30;99.90
23827;DHT22;12094;50.822;4.376;2023-02-15T16:14:40;12.30;99.90
23827;DHT22;12094;50.822;4.376;2023-02-15T16:17:16;12.20;99.90
23827;DHT22;12094;50.822;4.376;2023-02-15T16:19:44;12.20;99.90
23827;DHT22;12094;50.822;4.376;2023-02-15T16:22:23;12.20;99.90
23827;DHT22;12094;50.822;4.376;2023-02-15T16:30:13;11.90;99.90
23827;DHT22;12094;50.822;4.376;2023-02-15T16:32:46;11.90;99.90
23827;DHT22;12094;50.822;4.376;2023-02-15T16:35:18;11.90;99.90
23827;DHT22;12094;50.822;4.376;2023-02-15T16:37:51;11.90;99.90
23827;DHT22;12094;50.822;4.376;2023-02-15T16:43:02;11.90;99.90
23827;DHT22;12094;50.822;4.376;2023-02-15T16:45:33;11.90;99.90
23827;DHT22;12094;50.822;4.376;2023-02-15T16:48:23;11.80;99.90
23827;DHT22;12094;50.822;4.376;2023-02-15T16:50:57;11.80;99.90
23827;DHT22;12094;50.822;4.376;2023-02-15T16:53:28;11.70;99.90
23827;DHT22;12094;50.822;4.376;2023-02-15T16:56:04;11.60;99.90
23827;DHT22;12094;50.822;4.376;2023-02-15T16:58:54;11.60;99.90
23827;DHT22;12094;50.822;4.376;2023-02-15T17:01:32;11.50;99.90
23827;DHT22;12094;50.822;4.376;2023-02-15T17:04:33;11.40;99.90
23827;DHT22;12094;50.822;4.376;2023-02-15T17:07:18;11.40;99.90
23827;DHT22;12094;50.822;4.376;2023-02-15T17:09:56;11.40;99.90
23827;DHT22;12094;50.822;4.376;2023-02-15T17:12:47;11.40;99.90
23827;DHT22;12094;50.822;4.376;2023-02-15T17:15:34;11.40;99.90
23827;DHT22;12094;50.822;4.376;2023-02-15T17:18:06;11.30;99.90
23827;DHT22;12094;50.822;4.376;2023-02-15T17:20:38;11.30;99.90
23827;DHT22;12094;50.822;4.376;2023-02-15T17:23:34;11.20;99.90
23827;DHT22;12094;50.822;4.376;2023-02-15T17:26:13;11.10;99.90
23827;DHT22;12094;50.822;4.376;2023-02-15T17:28:54;11.00;99.90
23827;DHT22;12094;50.822;4.376;2023-02-15T17:31:26;11.00;99.90
23827;DHT22;12094;50.822;4.376;2023-02-15T17:34:00;11.00;99.90
23827;DHT22;12094;50.822;4.376;2023-02-15T17:36:30;11.00;99.90
23827;DHT22;12094;50.822;4.376;2023-02-15T17:39:06;10.80;99.90
23827;DHT22;12094;50.822;4.376;2023-02-15T17:41:44;10.80;99.90
23827;DHT22;12094;50.822;4.376;2023-02-15T17:44:13;10.70;99.90
23827;DHT22;12094;50.822;4.376;2023-02-15T17:46:42;10.70;99.90
23827;DHT22;12094;50.822;4.376;2023-02-15T17:49:22;10.70;99.90
23827;DHT22;12094;50.822;4.376;2023-02-15T17:51:57;10.60;99.90
23827;DHT22;12094;50.822;4.376;2023-02-15T17:54:26;10.50;99.90
23827;DHT22;12094;50.822;4.376;2023-02-15T17:57:34;10.50;99.90
23827;DHT22;12094;50.822;4.376;2023-02-15T18:00:12;10.40;99.90
23827;DHT22;12094;50.822;4.376;2023-02-15T18:03:06;10.40;99.90
23827;DHT22;12094;50.822;4.376;2023-02-15T18:05:54;10.40;99.90
23827;DHT22;12094;50.822;4.376;2023-02-15T18:11:51;10.40;99.90
23827;DHT22;12094;50.822;4.376;2023-02-15T18:14:19;10.30;99.90
23827;DHT22;12094;50.822;4.376;2023-02-15T18:16:46;10.30;99.90
23827;DHT22;12094;50.822;4.376;2023-02-15T18:19:32;10.30;99.90
23827;DHT22;12094;50.822;4.376;2023-02-15T18:21:59;10.30;99.90
23827;DHT22;12094;50.822;4.376;2023-02-15T18:24:27;10.30;99.90
23827;DHT22;12094;50.822;4.376;2023-02-15T18:26:57;10.30;99.90
23827;DHT22;12094;50.822;4.376;2023-02-15T18:29:26;10.40;99.90
23827;DHT22;12094;50.822;4.376;2023-02-15T18:31:56;10.40;99.90
23827;DHT22;12094;50.822;4.376;2023-02-15T18:34:29;10.50;99.90
23827;DHT22;12094;50.822;4.376;2023-02-15T18:37:08;10.50;99.90
23827;DHT22;12094;50.822;4.376;2023-02-15T18:39:54;10.40;99.90
23827;DHT22;12094;50.822;4.376;2023-02-15T18:45:44;10.40;99.90
23827;DHT22;12094;50.822;4.376;2023-02-15T18:48:14;10.30;99.90
23827;DHT22;12094;50.822;4.376;2023-02-15T18:50:50;10.30;99.90
23827;DHT22;12094;50.822;4.376;2023-02-15T18:53:19;10.30;99.90
23827;DHT22;12094;50.822;4.376;2023-02-15T18:55:47;10.30;99.90
23827;DHT22;12094;50.822;4.376;2023-02-15T18:58:20;10.20;99.90
23827;DHT22;12094;50.822;4.376;2023-02-15T19:00:49;10.20;99.90
23827;DHT22;12094;50.822;4.376;2023-02-15T19:03:21;10.10;99.90
23827;DHT22;12094;50.822;4.376;2023-02-15T19:05:48;10.10;99.90
23827;DHT22;12094;50.822;4.376;2023-02-15T19:08:30;10.00;99.90
23827;DHT22;12094;50.822;4.376;2023-02-15T19:10:59;10.00;99.90
23827;DHT22;12094;50.822;4.376;2023-02-15T19:13:28;10.00;99.90
23827;DHT22;12094;50.822;4.376;2023-02-15T19:15:59;9.90;99.90
23827;DHT22;12094;50.822;4.376;2023-02-15T19:18:26;9.90;99.90
23827;DHT22;12094;50.822;4.376;2023-02-15T19:20:55;9.80;99.90
23827;DHT22;12094;50.822;4.376;2023-02-15T19:23:27;9.80;99.90
23827;DHT22;12094;50.822;4.376;2023-02-15T19:26:12;9.80;99.90
23827;DHT22;12094;50.822;4.376;2023-02-15T19:28:43;9.80;99.90
23827;DHT22;12094;50.822;4.376;2023-02-15T19:31:29;9.70;99.90
23827;DHT22;12094;50.822;4.376;2023-02-15T19:34:15;9.60;99.90
23827;DHT22;12094;50.822;4.376;2023-02-15T19:36:46;9.60;99.90
23827;DHT22;12094;50.822;4.376;2023-02-15T19:39:29;9.60;99.90
23827;DHT22;12094;50.822;4.376;2023-02-15T19:42:01;9.60;99.90
23827;DHT22;12094;50.822;4.376;2023-02-15T19:44:30;9.60;99.90
23827;DHT22;12094;50.822;4.376;2023-02-15T19:46:58;9.60;99.90
23827;DHT22;12094;50.822;4.376;2023-02-15T19:49:26;9.50;99.90
23827;DHT22;12094;50.822;4.376;2023-02-15T19:51:56;9.50;99.90
23827;DHT22;12094;50.822;4.376;2023-02-15T19:54:34;9.40;99.90